Time;durP1;ratioP1;P1;durP2;ratioP2;P2;SDS_P1;SDS_P2;PMS_P1;PMS_P2;Temp;Humidity;BMP_temperature;BMP_pressure;BME280_temperature;BME280_humidity;BME280_pressure;Samples;Min_cycle;Max_cycle;Signal;HPM_P1;HPM_P2
2021/05/26 00:03:57;;;;;;;3.03;1.80;;;;;;;;;;10278421;28;20068;-63
2021/05/26 00:08:56;;;;;;;4.00;2.00;;;;;;;;;;10275610;28;20056;-63
2021/05/26 00:13:53;;;;;;;6.25;2.10;;;;;;;;;;10277712;28;20064;-63
2021/05/26 00:18:51;;;;;;;11.90;2.00;;;;;;;;;;10276932;28;20084;-63
2021/05/26 00:23:49;;;;;;;4.43;1.70;;;;;;;;;;10276875;28;20049;-63
2021/05/26 00:28:48;;;;;;;1.63;1.45;;;;;;;;;;10277302;28;20084;-63
2021/05/26 00:33:46;;;;;;;4.78;1.67;;;;;;;;;;10274997;28;20103;-63
2021/05/26 00:38:44;;;;;;;3.72;1.27;;;;;;;;;;10276138;28;20091;-63
2021/05/26 00:43:42;;;;;;;3.28;1.52;;;;;;;;;;10276209;28;20067;-63
2021/05/26 00:48:40;;;;;;;4.43;1.60;;;;;;;;;;10275121;28;20040;-63
2021/05/26 00:53:39;;;;;;;2.33;1.70;;;;;;;;;;10274006;28;20045;-63
2021/05/26 00:58:37;;;;;;;2.13;1.52;;;;;;;;;;10275657;28;20089;-63
2021/05/26 01:03:35;;;;;;;3.25;1.80;;;;;;;;;;10274717;28;20056;-63
2021/05/26 01:08:34;;;;;;;2.03;1.67;;;;;;;;;;10276370;28;20080;-63
2021/05/26 01:13:32;;;;;;;3.08;1.60;;;;;;;;;;10274488;28;20513;-63
2021/05/26 01:18:31;;;;;;;1.83;1.58;;;;;;;;;;10275219;28;20053;-63
2021/05/26 01:23:36;;;;;;;5.40;1.58;;;;;;;;;;10274303;28;20057;-63
2021/05/26 01:28:36;;;;;;;2.72;1.70;;;;;;;;;;10276045;28;20049;-63
2021/05/26 01:33:38;;;;;;;2.22;1.90;;;;;;;;;;10275855;28;20410;-64
2021/05/26 01:38:42;;;;;;;3.42;1.85;;;;;;;;;;10277646;28;20502;-63
2021/05/26 01:43:40;;;;;;;1.80;1.70;;;;;;;;;;10283956;28;20052;-63
2021/05/26 01:48:38;;;;;;;2.22;1.50;;;;;;;;;;10281848;28;20053;-63
2021/05/26 01:53:37;;;;;;;10.57;1.55;;;;;;;;;;10283505;28;20410;-63
2021/05/26 01:58:36;;;;;;;3.28;1.83;;;;;;;;;;10283319;28;20080;-64
2021/05/26 02:03:42;;;;;;;3.35;1.63;;;;;;;;;;10281280;28;20049;-62
2021/05/26 02:08:40;;;;;;;1.75;1.65;;;;;;;;;;10281130;28;20048;-63
2021/05/26 02:13:39;;;;;;;2.00;1.40;;;;;;;;;;10283005;28;20616;-64
2021/05/26 02:18:37;;;;;;;4.93;1.83;;;;;;;;;;10280066;28;20088;-64
2021/05/26 02:23:36;;;;;;;6.00;1.80;;;;;;;;;;10281341;28;20056;-62
2021/05/26 02:28:34;;;;;;;2.50;1.48;;;;;;;;;;10280741;28;20052;-63
2021/05/26 02:33:33;;;;;;;2.40;1.40;;;;;;;;;;10282000;28;20060;-61
2021/05/26 02:38:31;;;;;;;3.28;1.63;;;;;;;;;;10280746;28;20080;-63
2021/05/26 02:43:29;;;;;;;2.88;1.83;;;;;;;;;;10281679;28;20046;-63
2021/05/26 02:48:27;;;;;;;4.35;1.55;;;;;;;;;;10280627;28;20049;-63
2021/05/26 02:53:26;;;;;;;2.75;1.88;;;;;;;;;;10280273;28;20253;-63
2021/05/26 02:58:24;;;;;;;3.65;1.33;;;;;;;;;;10278046;28;20076;-64
2021/05/26 03:03:31;;;;;;;4.00;2.05;;;;;;;;;;10280734;28;20506;-62
2021/05/26 03:08:35;;;;;;;3.00;1.95;;;;;;;;;;10278860;28;20415;-62
2021/05/26 03:13:33;;;;;;;3.88;1.70;;;;;;;;;;10280543;28;20079;-63
2021/05/26 03:18:33;;;;;;;5.55;2.22;;;;;;;;;;10278200;28;20556;-62
2021/05/26 03:23:35;;;;;;;5.15;1.73;;;;;;;;;;10278321;28;20063;-62
2021/05/26 03:28:53;;;;;;;6.13;3.05;;;;;;;;;;10278945;28;20802;-62
2021/05/26 03:33:51;;;;;;;3.80;1.85;;;;;;;;;;10279886;28;20490;-62
2021/05/26 03:38:50;;;;;;;2.35;2.10;;;;;;;;;;10277564;28;20485;-62
2021/05/26 03:43:48;;;;;;;2.40;2.20;;;;;;;;;;10279260;28;20084;-62
2021/05/26 03:48:47;;;;;;;8.10;2.42;;;;;;;;;;10279051;28;20053;-62
2021/05/26 03:53:46;;;;;;;12.65;3.20;;;;;;;;;;10277043;28;20045;-62
2021/05/26 03:58:51;;;;;;;4.13;3.80;;;;;;;;;;10277099;28;20052;-61
2021/05/26 04:03:55;;;;;;;5.95;3.40;;;;;;;;;;10277469;28;20048;-63
2021/05/26 04:08:53;;;;;;;7.20;3.80;;;;;;;;;;10278424;28;20079;-63
2021/05/26 04:13:53;;;;;;;4.82;3.45;;;;;;;;;;10276418;28;20045;-63
2021/05/26 04:19:12;;;;;;;12.43;4.47;;;;;;;;;;10275642;28;20088;-63
2021/05/26 04:24:10;;;;;;;8.32;4.03;;;;;;;;;;10276348;28;20524;-63
2021/05/26 04:29:10;;;;;;;8.98;4.15;;;;;;;;;;10276064;28;20049;-63
2021/05/26 04:34:14;;;;;;;7.25;3.95;;;;;;;;;;10275497;28;20057;-62
2021/05/26 04:39:12;;;;;;;7.50;4.95;;;;;;;;;;10276471;28;20084;-63
2021/05/26 04:44:11;;;;;;;15.55;5.10;;;;;;;;;;10274066;28;20072;-63
2021/05/26 04:49:09;;;;;;;8.18;4.57;;;;;;;;;;10275997;28;20056;-63
2021/05/26 04:54:06;;;;;;;8.18;4.80;;;;;;;;;;10270055;28;20080;-63
2021/05/26 04:59:04;;;;;;;15.93;5.20;;;;;;;;;;10228755;28;20077;-62
2021/05/26 05:04:03;;;;;;;8.50;5.00;;;;;;;;;;10228333;28;20567;-62
2021/05/26 05:09:02;;;;;;;12.23;4.95;;;;;;;;;;10228561;28;20068;-62
2021/05/26 05:14:00;;;;;;;10.90;4.90;;;;;;;;;;10232446;28;20077;-62
2021/05/26 05:18:58;;;;;;;9.40;4.95;;;;;;;;;;10233179;28;20085;-62
2021/05/26 05:24:01;;;;;;;11.60;5.43;;;;;;;;;;10233159;28;20046;-63
2021/05/26 05:28:59;;;;;;;10.25;6.25;;;;;;;;;;10233800;28;20061;-62
2021/05/26 05:33:56;;;;;;;10.93;6.75;;;;;;;;;;10233761;28;20073;-63
2021/05/26 05:38:54;;;;;;;14.40;6.53;;;;;;;;;;10233351;28;20333;-63
2021/05/26 05:43:53;;;;;;;12.77;5.82;;;;;;;;;;10233666;28;20069;-63
2021/05/26 05:48:53;;;;;;;9.95;7.43;;;;;;;;;;10233867;28;20064;-63
2021/05/26 05:53:51;;;;;;;16.15;7.10;;;;;;;;;;10233641;28;20049;-62
2021/05/26 05:58:48;;;;;;;10.95;6.13;;;;;;;;;;10232144;28;20083;-62
2021/05/26 06:03:47;;;;;;;9.88;6.03;;;;;;;;;;10233192;28;20049;-62
2021/05/26 06:08:45;;;;;;;12.00;6.60;;;;;;;;;;10233153;28;20046;-63
2021/05/26 06:13:48;;;;;;;9.65;6.70;;;;;;;;;;10233138;28;20069;-63
2021/05/26 06:18:46;;;;;;;20.42;8.68;;;;;;;;;;10231786;28;20081;-62
2021/05/26 06:23:44;;;;;;;16.45;7.75;;;;;;;;;;10234870;28;20074;-62
2021/05/26 06:28:42;;;;;;;21.02;10.80;;;;;;;;;;10240123;28;20494;-62
2021/05/26 06:33:42;;;;;;;12.32;7.38;;;;;;;;;;10239763;28;20077;-62
2021/05/26 06:38:41;;;;;;;20.85;6.78;;;;;;;;;;10239763;28;20099;-62
2021/05/26 08:00:08;;;;;;;15.00;6.85;;;;;;;;;;10256806;28;20733;-61
2021/05/26 08:05:10;;;;;;;12.38;7.13;;;;;;;;;;10269174;28;20083;-61
2021/05/26 08:10:08;;;;;;;16.50;6.00;;;;;;;;;;10276372;28;20053;-61
2021/05/26 08:15:06;;;;;;;9.82;6.28;;;;;;;;;;10276796;28;20057;-61
2021/05/26 08:20:05;;;;;;;10.45;6.10;;;;;;;;;;10274017;28;20092;-62
2021/05/26 08:25:04;;;;;;;10.48;5.93;;;;;;;;;;10276727;28;20049;-62
2021/05/26 08:30:02;;;;;;;9.57;5.90;;;;;;;;;;10269252;28;20084;-62
2021/05/26 08:34:59;;;;;;;8.65;5.10;;;;;;;;;;10249409;28;20593;-62
2021/05/26 08:39:58;;;;;;;9.85;5.32;;;;;;;;;;10259552;28;20080;-62
2021/05/26 08:44:56;;;;;;;13.02;3.97;;;;;;;;;;10260096;28;20084;-61
2021/05/26 08:49:55;;;;;;;6.22;4.95;;;;;;;;;;10262547;28;20076;-61
2021/05/26 08:54:53;;;;;;;8.10;4.32;;;;;;;;;;10254259;28;20077;-62
2021/05/26 08:59:51;;;;;;;8.27;4.55;;;;;;;;;;10248534;28;20073;-61
2021/05/26 09:04:49;;;;;;;6.63;4.07;;;;;;;;;;10258338;28;20088;-62
2021/05/26 09:09:51;;;;;;;9.27;3.55;;;;;;;;;;10274884;28;20064;-62
2021/05/26 09:14:49;;;;;;;5.38;3.38;;;;;;;;;;10275478;28;20060;-62
2021/05/26 09:19:48;;;;;;;10.00;3.17;;;;;;;;;;10265514;28;20080;-62
2021/05/26 09:24:47;;;;;;;7.32;3.60;;;;;;;;;;10269061;28;20088;-61
2021/05/26 09:29:45;;;;;;;6.53;3.67;;;;;;;;;;10274555;28;20422;-62
2021/05/26 09:34:44;;;;;;;7.75;3.72;;;;;;;;;;10257968;28;20068;-62
2021/05/26 09:39:50;;;;;;;4.05;3.00;;;;;;;;;;10262962;28;20081;-61
2021/05/26 09:45:08;;;;;;;6.15;3.35;;;;;;;;;;10262757;28;20088;-62
2021/05/26 09:50:22;;;;;;;9.88;3.60;;;;;;;;;;10262119;28;20069;-61
2021/05/26 09:55:22;;;;;;;6.70;2.63;;;;;;;;;;10274664;28;20421;-61
2021/05/26 10:00:20;;;;;;;4.75;3.20;;;;;;;;;;10275600;28;20072;-62
2021/05/26 10:05:19;;;;;;;8.23;3.30;;;;;;;;;;10282243;28;20045;-62
2021/05/26 10:10:36;;;;;;;5.30;3.00;;;;;;;;;;10282555;28;20072;-61
2021/05/26 10:15:48;;;;;;;3.90;3.40;;;;;;;;;;10279924;28;20521;-61
2021/05/26 10:20:46;;;;;;;9.18;4.35;;;;;;;;;;10278520;28;20069;-61
2021/05/26 10:25:45;;;;;;;8.15;5.45;;;;;;;;;;10275756;28;20147;-62
2021/05/26 10:30:48;;;;;;;7.15;3.90;;;;;;;;;;10276568;28;20076;-63
2021/05/26 10:35:57;;;;;;;8.48;4.70;;;;;;;;;;10279326;28;20084;-62
2021/05/26 10:40:56;;;;;;;7.65;4.10;;;;;;;;;;10279540;28;20084;-62
2021/05/26 10:45:55;;;;;;;6.18;3.55;;;;;;;;;;10279772;28;20084;-62
2021/05/26 10:50:54;;;;;;;11.80;3.92;;;;;;;;;;10279340;28;20041;-62
2021/05/26 10:55:53;;;;;;;16.65;12.48;;;;;;;;;;10278760;28;20052;-62
2021/05/26 11:01:10;;;;;;;13.82;9.43;;;;;;;;;;10278911;28;20084;-61
2021/05/26 11:06:38;;;;;;;10.02;4.38;;;;;;;;;;10278718;28;20526;-61
2021/05/26 11:11:49;;;;;;;7.40;4.70;;;;;;;;;;10278305;28;20068;-62
2021/05/26 11:17:02;;;;;;;8.68;4.88;;;;;;;;;;10278575;28;20080;-62
2021/05/26 11:22:02;;;;;;;11.63;6.40;;;;;;;;;;10265193;28;20084;-62
2021/05/26 11:27:00;;;;;;;12.00;6.38;;;;;;;;;;10278075;28;20045;-62
2021/05/26 11:32:04;;;;;;;9.80;5.43;;;;;;;;;;10278366;28;20057;-62
2021/05/26 11:37:03;;;;;;;11.95;6.40;;;;;;;;;;10277985;28;20041;-63
2021/05/26 11:42:07;;;;;;;11.63;7.07;;;;;;;;;;10276046;28;20052;-62
2021/05/26 11:47:05;;;;;;;7.90;6.35;;;;;;;;;;10276870;28;20052;-62
2021/05/26 11:52:05;;;;;;;10.38;5.15;;;;;;;;;;10277766;28;20049;-62
2021/05/26 11:57:04;;;;;;;13.55;5.97;;;;;;;;;;10277068;28;20494;-62
2021/05/26 12:02:05;;;;;;;15.02;8.60;;;;;;;;;;10276552;28;20092;-63
2021/05/26 12:07:05;;;;;;;14.65;8.60;;;;;;;;;;10277016;28;20505;-63
2021/05/26 12:12:13;;;;;;;14.85;8.77;;;;;;;;;;10276553;28;20045;-62
2021/05/26 12:17:13;;;;;;;11.23;5.15;;;;;;;;;;10276335;28;20052;-62
2021/05/26 12:22:14;;;;;;;11.55;5.57;;;;;;;;;;10274883;28;20083;-62
2021/05/26 12:27:12;;;;;;;9.27;5.55;;;;;;;;;;10275905;28;20067;-62
2021/05/26 12:32:23;;;;;;;11.48;7.30;;;;;;;;;;10276019;28;20041;-62
2021/05/26 12:37:36;;;;;;;13.07;7.65;;;;;;;;;;10273806;28;20060;-62
2021/05/26 12:42:35;;;;;;;12.60;6.68;;;;;;;;;;10275184;28;20091;-62
2021/05/26 12:47:34;;;;;;;12.70;5.90;;;;;;;;;;10274822;28;20045;-62
2021/05/26 12:52:32;;;;;;;9.73;6.40;;;;;;;;;;10247320;28;20084;-63
2021/05/26 12:57:31;;;;;;;11.02;5.25;;;;;;;;;;10228292;28;20550;-64
2021/05/26 13:02:30;;;;;;;14.63;5.85;;;;;;;;;;10230714;28;20100;-64
2021/05/26 13:07:29;;;;;;;12.95;6.28;;;;;;;;;;10231901;28;20080;-64
2021/05/26 13:12:28;;;;;;;14.05;7.07;;;;;;;;;;10233541;28;20049;-63
2021/05/26 13:17:27;;;;;;;6.07;4.82;;;;;;;;;;10234016;28;20049;-63
2021/05/26 13:22:27;;;;;;;6.93;5.30;;;;;;;;;;10233892;28;20529;-64
2021/05/26 13:27:27;;;;;;;9.45;4.97;;;;;;;;;;10233559;28;20121;-63
2021/05/26 13:32:24;;;;;;;9.30;5.72;;;;;;;;;;10235245;28;20080;-63
2021/05/26 13:37:22;;;;;;;7.25;5.68;;;;;;;;;;10242096;28;20042;-63
2021/05/26 13:42:21;;;;;;;14.07;6.80;;;;;;;;;;10241513;28;20540;-63
2021/05/26 13:47:19;;;;;;;7.10;5.88;;;;;;;;;;10241604;28;20045;-63
2021/05/26 13:52:17;;;;;;;7.80;5.93;;;;;;;;;;10241441;28;20073;-63
2021/05/26 13:57:15;;;;;;;14.18;6.00;;;;;;;;;;10240046;28;20050;-63
2021/05/26 14:02:13;;;;;;;9.68;7.00;;;;;;;;;;10240432;28;20076;-63
2021/05/26 14:07:11;;;;;;;7.47;5.95;;;;;;;;;;10240685;28;20402;-63
2021/05/26 14:12:09;;;;;;;7.43;6.03;;;;;;;;;;10240440;28;20045;-63
2021/05/26 14:17:07;;;;;;;13.00;6.95;;;;;;;;;;10240311;28;20045;-63
2021/05/26 14:22:07;;;;;;;13.25;8.27;;;;;;;;;;10240106;28;20084;-63
2021/05/26 14:27:06;;;;;;;10.25;7.50;;;;;;;;;;10239937;28;20056;-63
2021/05/26 14:32:04;;;;;;;8.25;7.05;;;;;;;;;;10239916;28;20075;-63
2021/05/26 14:37:08;;;;;;;13.20;9.27;;;;;;;;;;10238982;28;20147;-63
2021/05/26 14:42:08;;;;;;;13.63;7.22;;;;;;;;;;10239519;28;20077;-64
2021/05/26 14:47:06;;;;;;;8.75;7.65;;;;;;;;;;10238285;28;20072;-64
2021/05/26 14:52:04;;;;;;;8.23;7.13;;;;;;;;;;10238313;28;20041;-64
2021/05/26 14:57:04;;;;;;;9.48;7.80;;;;;;;;;;10238490;28;20046;-63
2021/05/26 15:02:07;;;;;;;9.07;7.00;;;;;;;;;;10237221;28;20099;-64
2021/05/26 15:07:05;;;;;;;16.58;12.13;;;;;;;;;;10237727;28;20033;-63
2021/05/26 15:12:03;;;;;;;15.15;10.35;;;;;;;;;;10238036;28;20080;-63
2021/05/26 15:17:01;;;;;;;12.68;8.73;;;;;;;;;;10238177;28;20045;-63
2021/05/26 15:22:00;;;;;;;18.92;11.98;;;;;;;;;;10237766;28;20081;-63
2021/05/26 15:26:58;;;;;;;12.20;8.50;;;;;;;;;;10237502;28;20081;-65
2021/05/26 15:31:55;;;;;;;11.45;8.18;;;;;;;;;;10237573;28;20498;-64
2021/05/26 15:36:53;;;;;;;11.05;9.88;;;;;;;;;;10237516;28;20060;-64
2021/05/26 15:41:52;;;;;;;13.93;10.95;;;;;;;;;;10236969;28;20077;-64
2021/05/26 15:46:52;;;;;;;14.07;9.40;;;;;;;;;;10236849;28;20053;-63
2021/05/26 15:51:50;;;;;;;18.50;9.43;;;;;;;;;;10236557;28;20096;-63
2021/05/26 15:56:48;;;;;;;19.30;15.82;;;;;;;;;;10235593;28;20077;-63
2021/05/26 16:01:46;;;;;;;13.15;9.05;;;;;;;;;;10235508;28;20111;-63
2021/05/26 16:06:46;;;;;;;14.80;12.75;;;;;;;;;;10236062;28;20084;-64
2021/05/26 16:11:43;;;;;;;11.88;9.13;;;;;;;;;;10235794;28;20498;-63
2021/05/26 16:16:41;;;;;;;13.95;10.40;;;;;;;;;;10235634;28;20099;-64
2021/05/26 16:21:40;;;;;;;22.95;18.77;;;;;;;;;;10235388;28;20531;-63
2021/05/26 16:26:38;;;;;;;17.90;16.05;;;;;;;;;;10235354;28;20505;-64
2021/05/26 16:31:36;;;;;;;19.88;16.83;;;;;;;;;;10234735;28;20069;-64
2021/05/26 16:36:34;;;;;;;16.75;14.02;;;;;;;;;;10235087;28;20077;-63
2021/05/26 16:41:33;;;;;;;13.45;12.25;;;;;;;;;;10234827;28;20085;-63
2021/05/26 16:46:30;;;;;;;15.18;13.73;;;;;;;;;;10234531;28;20044;-63
2021/05/26 16:51:28;;;;;;;12.07;10.00;;;;;;;;;;10234220;28;20080;-63
2021/05/26 16:56:26;;;;;;;19.30;10.60;;;;;;;;;;10233508;28;20470;-64
2021/05/26 17:01:25;;;;;;;17.17;13.02;;;;;;;;;;10239551;28;20081;-63
2021/05/26 17:06:23;;;;;;;13.27;11.30;;;;;;;;;;10266892;28;20076;-63
2021/05/26 17:11:24;;;;;;;14.00;9.23;;;;;;;;;;10259687;28;20077;-62
2021/05/26 17:16:22;;;;;;;17.48;12.00;;;;;;;;;;10276275;28;20080;-62
2021/05/26 17:21:22;;;;;;;21.45;11.70;;;;;;;;;;10261048;28;20570;-63
2021/05/26 17:26:21;;;;;;;14.43;11.00;;;;;;;;;;10249188;28;20080;-63
2021/05/26 17:31:19;;;;;;;13.77;11.80;;;;;;;;;;10264582;28;20057;-64
2021/05/26 17:36:17;;;;;;;18.25;11.52;;;;;;;;;;10263203;28;20069;-63
2021/05/26 17:41:16;;;;;;;21.17;16.80;;;;;;;;;;10252642;28;20068;-62
2021/05/26 17:46:14;;;;;;;23.73;18.25;;;;;;;;;;10261013;28;20073;-63
2021/05/26 17:51:12;;;;;;;13.75;9.80;;;;;;;;;;10258020;28;20044;-64
2021/05/26 17:56:14;;;;;;;14.32;6.97;;;;;;;;;;10267804;28;20529;-63
2021/05/26 18:01:12;;;;;;;9.88;5.25;;;;;;;;;;10272660;28;20112;-64
2021/05/26 18:06:10;;;;;;;5.47;4.30;;;;;;;;;;10275069;28;20063;-64
2021/05/26 18:11:08;;;;;;;10.77;5.50;;;;;;;;;;10274374;28;20049;-64
2021/05/26 18:16:06;;;;;;;8.18;3.50;;;;;;;;;;10274268;28;20053;-64
2021/05/26 18:21:09;;;;;;;7.95;3.00;;;;;;;;;;10276831;28;20107;-64
2021/05/26 18:26:07;;;;;;;8.32;3.47;;;;;;;;;;10281646;28;20041;-64
2021/05/26 18:31:05;;;;;;;9.10;5.95;;;;;;;;;;10281632;28;20045;-64
2021/05/26 18:36:03;;;;;;;7.22;3.53;;;;;;;;;;10279659;28;20068;-63
2021/05/26 18:41:02;;;;;;;4.57;2.30;;;;;;;;;;10279479;28;20151;-63
2021/05/26 18:46:00;;;;;;;14.98;2.40;;;;;;;;;;10279409;28;20498;-64
2021/05/26 18:50:58;;;;;;;5.63;3.33;;;;;;;;;;10280765;28;20071;-64
2021/05/26 18:55:56;;;;;;;7.53;2.75;;;;;;;;;;10280961;28;20073;-63
2021/05/26 19:00:54;;;;;;;3.95;2.15;;;;;;;;;;10280030;28;20075;-63
2021/05/26 19:05:52;;;;;;;10.63;3.70;;;;;;;;;;10280550;28;20087;-64
2021/05/26 19:10:53;;;;;;;6.95;2.47;;;;;;;;;;10262337;28;20442;-62
2021/05/26 19:15:51;;;;;;;12.35;4.53;;;;;;;;;;10268895;28;20087;-62
2021/05/26 19:20:50;;;;;;;10.70;3.17;;;;;;;;;;10261748;28;20041;-63
2021/05/26 19:25:48;;;;;;;10.98;6.82;;;;;;;;;;10279326;28;20081;-63
2021/05/26 19:30:46;;;;;;;3.15;2.70;;;;;;;;;;10275304;28;20061;-62
2021/05/26 19:35:51;;;;;;;3.28;1.40;;;;;;;;;;10259161;28;20080;-62
2021/05/26 19:40:50;;;;;;;3.45;2.33;;;;;;;;;;10278889;28;20045;-64
2021/05/26 19:45:50;;;;;;;3.40;1.70;;;;;;;;;;10274749;28;20095;-64
2021/05/26 19:50:48;;;;;;;4.50;1.70;;;;;;;;;;10278343;28;20041;-63
2021/05/26 19:55:46;;;;;;;6.05;2.00;;;;;;;;;;10267877;28;20072;-64
2021/05/26 20:00:45;;;;;;;4.78;2.88;;;;;;;;;;10272581;28;20073;-63
2021/05/26 20:06:03;;;;;;;6.47;4.13;;;;;;;;;;10272161;28;20071;-63
2021/05/26 20:11:01;;;;;;;8.93;4.50;;;;;;;;;;10273740;28;20080;-63
2021/05/26 20:16:00;;;;;;;5.47;4.90;;;;;;;;;;10262092;28;20505;-63
2021/05/26 20:20:58;;;;;;;6.93;5.05;;;;;;;;;;10266418;28;20553;-63
2021/05/26 20:25:56;;;;;;;7.38;5.10;;;;;;;;;;10277185;28;20513;-63
2021/05/26 20:30:55;;;;;;;6.80;5.05;;;;;;;;;;10276985;28;20098;-63
2021/05/26 20:35:54;;;;;;;8.13;5.63;;;;;;;;;;10277013;28;20081;-63
2021/05/26 20:40:53;;;;;;;5.53;4.88;;;;;;;;;;10276711;28;20049;-62
2021/05/26 20:45:52;;;;;;;7.20;4.80;;;;;;;;;;10276202;28;20072;-62
2021/05/26 20:50:50;;;;;;;7.13;4.00;;;;;;;;;;10276618;28;20139;-63
2021/05/26 20:55:49;;;;;;;4.45;3.63;;;;;;;;;;10276271;28;20057;-63
2021/05/26 21:00:47;;;;;;;10.43;4.93;;;;;;;;;;10275599;28;20045;-63
2021/05/26 21:05:44;;;;;;;6.90;4.38;;;;;;;;;;10276382;28;20084;-63
2021/05/26 21:10:43;;;;;;;5.47;3.72;;;;;;;;;;10275179;28;20076;-63
2021/05/26 21:15:42;;;;;;;8.73;3.67;;;;;;;;;;10275561;28;20045;-63
2021/05/26 21:20:40;;;;;;;7.15;3.42;;;;;;;;;;10275443;28;20049;-63
2021/05/26 21:25:38;;;;;;;4.30;3.53;;;;;;;;;;10275992;28;20084;-63
2021/05/26 21:30:36;;;;;;;6.50;3.53;;;;;;;;;;10275107;28;20049;-63
2021/05/26 21:35:34;;;;;;;5.47;4.45;;;;;;;;;;10275660;28;20045;-63
2021/05/26 21:40:33;;;;;;;8.48;3.88;;;;;;;;;;10275129;28;20075;-63
2021/05/26 21:45:32;;;;;;;6.55;3.88;;;;;;;;;;10275012;28;20095;-63
2021/05/26 21:50:29;;;;;;;7.30;3.38;;;;;;;;;;10275226;28;20056;-63
2021/05/26 21:55:28;;;;;;;8.95;4.05;;;;;;;;;;10280256;28;20048;-63
2021/05/26 22:00:27;;;;;;;9.98;4.00;;;;;;;;;;10283192;28;20048;-63
2021/05/26 22:05:25;;;;;;;6.30;2.60;;;;;;;;;;10282684;28;20104;-63
2021/05/26 22:10:23;;;;;;;8.10;3.15;;;;;;;;;;10283025;28;20083;-64
2021/05/26 22:15:22;;;;;;;3.35;2.17;;;;;;;;;;10282325;28;20076;-63
2021/05/26 22:20:21;;;;;;;4.40;2.10;;;;;;;;;;10282218;28;20045;-63
2021/05/26 22:25:21;;;;;;;2.85;2.20;;;;;;;;;;10282229;28;20096;-63
2021/05/26 22:30:20;;;;;;;5.72;2.97;;;;;;;;;;10281724;28;20402;-63
2021/05/26 22:35:19;;;;;;;4.03;2.17;;;;;;;;;;10281539;28;20075;-63
2021/05/26 22:40:17;;;;;;;2.60;2.40;;;;;;;;;;10281192;28;20520;-63
2021/05/26 22:45:20;;;;;;;3.83;2.75;;;;;;;;;;10280026;28;20080;-63
2021/05/26 22:50:22;;;;;;;4.22;3.08;;;;;;;;;;10280950;28;20043;-63
2021/05/26 22:55:20;;;;;;;5.40;2.90;;;;;;;;;;10280978;28;20041;-63
2021/05/26 23:00:29;;;;;;;3.78;3.13;;;;;;;;;;10278567;28;20052;-63
2021/05/26 23:05:28;;;;;;;4.03;3.15;;;;;;;;;;10278780;28;20080;-63
2021/05/26 23:10:26;;;;;;;4.93;2.85;;;;;;;;;;10280554;28;20056;-64
2021/05/26 23:15:23;;;;;;;7.45;2.83;;;;;;;;;;10280306;28;20049;-63
2021/05/26 23:20:21;;;;;;;3.33;2.90;;;;;;;;;;10280003;28;20041;-63
2021/05/26 23:25:20;;;;;;;3.53;2.47;;;;;;;;;;10280085;28;20148;-63
2021/05/26 23:30:27;;;;;;;4.25;3.08;;;;;;;;;;10279283;28;20063;-63
2021/05/26 23:35:25;;;;;;;3.10;2.60;;;;;;;;;;10279784;28;20087;-63
2021/05/26 23:40:24;;;;;;;3.25;2.50;;;;;;;;;;10279512;28;20092;-64
2021/05/26 23:45:22;;;;;;;6.53;2.42;;;;;;;;;;10278518;28;20076;-62
2021/05/26 23:50:20;;;;;;;6.65;2.92;;;;;;;;;;10278625;28;20517;-63
2021/05/26 23:55:18;;;;;;;4.63;2.53;;;;;;;;;;10277485;28;20048;-62
